Sanctuary — WDF6190 — position and weather

sailwx.info

Track history (hours):
 
Tides and Currents Weather Stations Pressure Air Temp Water Temp Dewpoint Dewpoint Depression Visibility Wind Speed Wind Dir Waves Ship Positions

Sanctuary

Owner: Dutton, Stephen G, LEWISTON, CA. More information available from US FCC via Universal Licensing System and Coast Guard Vessel Documentation Center.

Last reported at 2017-Aug-17 20:09 UTC. Time now 2017-Aug-21 08:26 UTC.
Position N 48°34' W 122°54'.

Length 15 m.

Type: Pleasure craft. MMSI: 367470740.

Date/timePositionNaut miles runAvg speedWind from/ knotsBaromVisibWave heightAir tempDewpointWater temp
2017-Aug-17 20:09N 48°34' W 122°54'1 8.3
2017-Aug-17 20:00N 48°33' W 122°55'2 3.3
2017-Aug-17 19:17N 48°31' W 122°55'0 0.0
2017-Aug-17 13:14N 48°31' W 122°55'0 0.0
2017-Aug-17 12:50N 48°31' W 122°55'0 0.0
2017-Aug-17 12:20N 48°31' W 122°55'0 0.0
2017-Aug-17 11:44N 48°31' W 122°55'0 0.0
2017-Aug-17 10:32N 48°31' W 122°55'0 0.0
2017-Aug-17 10:02N 48°31' W 122°55'0 0.0
2017-Aug-17 09:38N 48°31' W 122°55'0 0.0
2017-Aug-17 09:14N 48°31' W 122°55'0 0.0
2017-Aug-17 08:50N 48°31' W 122°55'0 0.0
2017-Aug-17 08:20N 48°31' W 122°55'0 0.0
2017-Aug-17 07:38N 48°31' W 122°55'0 0.0
2017-Aug-17 07:02N 48°31' W 122°55'0 0.0
2017-Aug-17 06:50N 48°31' W 122°55'0 0.0
2017-Aug-17 05:14N 48°31' W 122°55'0 0.0
2017-Aug-17 02:38N 48°31' W 122°55'0 0.0
2017-Aug-16 16:41N 48°31' W 122°55'0 0.0
2017-Aug-16 02:11N 48°31' W 122°55'0 0.5
2017-Aug-16 02:00N 48°31' W 122°55'3 6.4
2017-Aug-16 01:29N 48°33' W 122°59'8 0.3
2017-Aug-15 00:42N 48°37' W 123°09'  
2017-Aug-12 17:14N 48°45' W 122°31'29 0.6
2017-Aug-10 18:27N 48°42' W 123°16'4 6.5
2017-Aug-10 17:50N 48°40' W 123°21'1 0.4
2017-Aug-10 14:55N 48°39' W 123°20'12 0.3
2017-Aug-08 20:30N 48°49' W 123°26'1 0.3
2017-Aug-08 17:35N 48°50' W 123°27'1 8.9
2017-Aug-08 17:26N 48°50' W 123°25'3 1.9
2017-Aug-08 15:47N 48°53' W 123°24'0 0.0
2017-Aug-08 07:54N 48°53' W 123°24'0 0.0
2017-Aug-08 01:54N 48°53' W 123°24'0 0.0
2017-Aug-07 21:54N 48°53' W 123°24'2 5.0
2017-Aug-07 21:27N 48°51' W 123°22'  
Track history (hours):
 
Tides and Currents Weather Stations Pressure Air Temp Water Temp Dewpoint Dewpoint Depression Visibility Wind Speed Wind Dir Waves Ship Positions

Sanctuary

Owner: Dutton, Stephen G, LEWISTON, CA. More information available from US FCC via Universal Licensing System and Coast Guard Vessel Documentation Center.

Last reported at 2017-Aug-17 20:09 UTC. Time now 2017-Aug-21 08:26 UTC.
Position N 48°34' W 122°54'.

Length 15 m.

Type: Pleasure craft. MMSI: 367470740.

Date/timePositionNaut miles runAvg speedWind from/ knotsBaromVisibWave heightAir tempDewpointWater temp
2017-Aug-17 20:09N 48°34' W 122°54'1 8.3
2017-Aug-17 20:00N 48°33' W 122°55'2 3.3
2017-Aug-17 19:17N 48°31' W 122°55'0 0.0
2017-Aug-17 13:14N 48°31' W 122°55'0 0.0
2017-Aug-17 12:50N 48°31' W 122°55'0 0.0
2017-Aug-17 12:20N 48°31' W 122°55'0 0.0
2017-Aug-17 11:44N 48°31' W 122°55'0 0.0
2017-Aug-17 10:32N 48°31' W 122°55'0 0.0
2017-Aug-17 10:02N 48°31' W 122°55'0 0.0
2017-Aug-17 09:38N 48°31' W 122°55'0 0.0
2017-Aug-17 09:14N 48°31' W 122°55'0 0.0
2017-Aug-17 08:50N 48°31' W 122°55'0 0.0
2017-Aug-17 08:20N 48°31' W 122°55'0 0.0
2017-Aug-17 07:38N 48°31' W 122°55'0 0.0
2017-Aug-17 07:02N 48°31' W 122°55'0 0.0
2017-Aug-17 06:50N 48°31' W 122°55'0 0.0
2017-Aug-17 05:14N 48°31' W 122°55'0 0.0
2017-Aug-17 02:38N 48°31' W 122°55'0 0.0
2017-Aug-16 16:41N 48°31' W 122°55'0 0.0
2017-Aug-16 02:11N 48°31' W 122°55'0 0.5
2017-Aug-16 02:00N 48°31' W 122°55'3 6.4
2017-Aug-16 01:29N 48°33' W 122°59'8 0.3
2017-Aug-15 00:42N 48°37' W 123°09'  
2017-Aug-12 17:14N 48°45' W 122°31'29 0.6
2017-Aug-10 18:27N 48°42' W 123°16'4 6.5
2017-Aug-10 17:50N 48°40' W 123°21'1 0.4
2017-Aug-10 14:55N 48°39' W 123°20'12 0.3
2017-Aug-08 20:30N 48°49' W 123°26'1 0.3
2017-Aug-08 17:35N 48°50' W 123°27'1 8.9
2017-Aug-08 17:26N 48°50' W 123°25'3 1.9
2017-Aug-08 15:47N 48°53' W 123°24'0 0.0
2017-Aug-08 07:54N 48°53' W 123°24'0 0.0
2017-Aug-08 01:54N 48°53' W 123°24'0 0.0
2017-Aug-07 21:54N 48°53' W 123°24'2 5.0
2017-Aug-07 21:27N 48°51' W 123°22'  

Dump ship's entire track history